Pagina principale
METAR-TAF:

METAR-TAF

Aeroporti :

Windham Airport

Willimantic, Connecticut, Stati Uniti

latitudine: 41-44-31N, longitudine: 072-11-01W, altezza: 75 m

Osservazione

Il bollettino è stato emesso 11 minuti fa, alle 07:52 UTC
Vento 3 kt da est/nord-est
Temperature 12°C
Umidità 94%
Pressione 1016 hPa
Visibilità: 16.1 km
Cielo sereno

METAR: KIJD 240752Z AUTO 06003KT 10SM CLR 12/11 A3001 RMK AO2 SLP161 T01220106

Ora: 04:03 (08:03 UTC)


TAF: mancante

Osservazioni e previsioni meteorologiche di più di 4000 aeroporti (messaggi METAR e TAF).

Le stazioni disponibili sono rappresentate dai dischi gialli e rossi sulla carta.

Puntare il mouse per vedere il nome della stazione.

Clicca sopra per visualizzare le osservazioni e previsioni meteorologiche.

Per cambiare la mappa : fare clic sui pulsanti verdi con una croce nera per ingrandire, il pulsante verde con un trattino per diminuire, o sulla freccia verde per le mappe adiacenti.


METAR-TAF: